^^
B2 Weather Station Historical Data
Daily Summary for April 17, 2018 Units:  Both    English   Metric
Daily Weekly Monthly Yearly Custom
  High: Low: Average:
Temperature: 43.1 °F /  6.2 °C 28.7 °F /  -1.8 °C 34.3 °F /  1.3 °C
Dew Point: 31.3 °F /  -0.4 °C 23.7 °F /  -4.6 °C 26.5 °F /  -3.1 °C
Humidity: 86% 59% 73%
Wind Speed: 19.6mph /  31.5km/h - 8.7mph /  14km/h
Wind Gust: 19.6mph /  31.5km/h - -
Wind- - West
Pressure: 29.97 in /  1014.8 hPa 29.90 in /  1012.4 hPa -
Precipitation: 0.00 in /  0 mm    
Historical Graphs
 
 
Tabular Data for April 17, 2018
Time Temperature Dew Point Pressure Wind Wind Speed Wind Gust Humidity Rainfall Rate (Hourly) solar
00:00 31.8 °F /  -0.1 °C 24.8 °F /  -4 °C 29.97in /  1014.8hPa WSW 12.7mph /  20.4km/h 12.7mph /  20.4km/h 75% 0.00in /  0mm 0.0 W/m2
00:05 31.7 °F /  -0.2 °C 24.7 °F /  -4.1 °C 29.97in /  1014.8hPa WNW 7.0mph /  11.3km/h 7.0mph /  11.3km/h 75% 0.00in /  0mm 0.0 W/m2
00:10 31.7 °F /  -0.2 °C 24.7 °F /  -4.1 °C 29.96in /  1014.4hPa West 17.0mph /  27.4km/h 17.0mph /  27.4km/h 75% 0.00in /  0mm 0.0 W/m2
00:15 31.7 °F /  -0.2 °C 24.7 °F /  -4.1 °C 29.96in /  1014.4hPa West 14.0mph /  22.5km/h 14.0mph /  22.5km/h 75% 0.00in /  0mm 0.0 W/m2
00:20 31.6 °F /  -0.2 °C 24.9 °F /  -3.9 °C 29.96in /  1014.4hPa WNW 13.0mph /  20.9km/h 13.0mph /  20.9km/h 76% 0.00in /  0mm 0.0 W/m2
00:25 31.5 °F /  -0.3 °C 24.8 °F /  -4 °C 29.97in /  1014.8hPa NW 10.4mph /  16.7km/h 10.4mph /  16.7km/h 76% 0.00in /  0mm 0.0 W/m2
00:30 31.5 °F /  -0.3 °C 24.8 °F /  -4 °C 29.97in /  1014.8hPa WNW 10.4mph /  16.7km/h 10.4mph /  16.7km/h 76% 0.00in /  0mm 0.0 W/m2
00:35 31.4 °F /  -0.3 °C 24.7 °F /  -4.1 °C 29.96in /  1014.4hPa West 8.1mph /  13km/h 8.1mph /  13km/h 76% 0.00in /  0mm 0.0 W/m2
00:40 31.4 °F /  -0.3 °C 24.7 °F /  -4.1 °C 29.96in /  1014.4hPa WNW 12.7mph /  20.4km/h 12.7mph /  20.4km/h 76% 0.00in /  0mm 0.0 W/m2
00:45 31.4 °F /  -0.3 °C 24.7 °F /  -4.1 °C 29.96in /  1014.4hPa WSW 9.0mph /  14.5km/h 9.0mph /  14.5km/h 76% 0.00in /  0mm 0.0 W/m2
00:50 31.3 °F /  -0.4 °C 24.6 °F /  -4.1 °C 29.96in /  1014.4hPa West 13.8mph /  22.2km/h 13.8mph /  22.2km/h 76% 0.00in /  0mm 0.0 W/m2
00:55 31.3 °F /  -0.4 °C 24.6 °F /  -4.1 °C 29.96in /  1014.4hPa West 12.7mph /  20.4km/h 12.7mph /  20.4km/h 76% 0.00in /  0mm 0.0 W/m2
01:00 31.2 °F /  -0.4 °C 24.8 °F /  -4 °C 29.95in /  1014.1hPa WNW 11.5mph /  18.5km/h 11.5mph /  18.5km/h 77% 0.00in /  0mm 0.0 W/m2
01:05 31.2 °F /  -0.4 °C 24.5 °F /  -4.2 °C 29.95in /  1014.1hPa West 15.0mph /  24.1km/h 15.0mph /  24.1km/h 76% 0.00in /  0mm 0.0 W/m2
01:10 31.2 °F /  -0.4 °C 24.8 °F /  -4 °C 29.95in /  1014.1hPa West 8.1mph /  13km/h 8.1mph /  13km/h 77% 0.00in /  0mm 0.0 W/m2
01:15 31.1 °F /  -0.5 °C 24.7 °F /  -4.1 °C 29.95in /  1014.1hPa WNW 8.0mph /  12.9km/h 8.0mph /  12.9km/h 77% 0.00in /  0mm 0.0 W/m2
01:20 31.1 °F /  -0.5 °C 24.7 °F /  -4.1 °C 29.95in /  1014.1hPa WNW 15.0mph /  24.1km/h 15.0mph /  24.1km/h 77% 0.00in /  0mm 0.0 W/m2
01:26 31.1 °F /  -0.5 °C 25.0 °F /  -3.9 °C 29.96in /  1014.4hPa WNW 11.5mph /  18.5km/h 11.5mph /  18.5km/h 78% 0.00in /  0mm 0.0 W/m2
01:31 31.0 °F /  -0.6 °C 24.9 °F /  -3.9 °C 29.96in /  1014.4hPa WSW 11.5mph /  18.5km/h 11.5mph /  18.5km/h 78% 0.00in /  0mm 0.0 W/m2
01:36 31.0 °F /  -0.6 °C 24.6 °F /  -4.1 °C 29.96in /  1014.4hPa West 11.5mph /  18.5km/h 11.5mph /  18.5km/h 77% 0.00in /  0mm 0.0 W/m2
01:41 31.0 °F /  -0.6 °C 24.6 °F /  -4.1 °C 29.96in /  1014.4hPa WNW 11.5mph /  18.5km/h 11.5mph /  18.5km/h 77% 0.00in /  0mm 0.0 W/m2
01:46 31.0 °F /  -0.6 °C 24.9 °F /  -3.9 °C 29.95in /  1014.1hPa West 11.5mph /  18.5km/h 11.5mph /  18.5km/h 78% 0.00in /  0mm 0.0 W/m2
01:51 30.9 °F /  -0.6 °C 24.5 °F /  -4.2 °C 29.95in /  1014.1hPa West 15.0mph /  24.1km/h 15.0mph /  24.1km/h 77% 0.00in /  0mm 0.0 W/m2
01:56 30.8 °F /  -0.7 °C 24.4 °F /  -4.2 °C 29.95in /  1014.1hPa WSW 11.5mph /  18.5km/h 11.5mph /  18.5km/h 77% 0.00in /  0mm 0.0 W/m2
02:01 30.8 °F /  -0.7 °C 24.4 °F /  -4.2 °C 29.95in /  1014.1hPa West 16.1mph /  25.9km/h 16.1mph /  25.9km/h 77% 0.00in /  0mm 0.0 W/m2
02:06 30.8 °F /  -0.7 °C 24.4 °F /  -4.2 °C 29.96in /  1014.4hPa WSW 15.0mph /  24.1km/h 15.0mph /  24.1km/h 77% 0.00in /  0mm 0.0 W/m2
02:11 30.8 °F /  -0.7 °C 24.7 °F /  -4.1 °C 29.96in /  1014.4hPa North 10.4mph /  16.7km/h 10.4mph /  16.7km/h 78% 0.00in /  0mm 0.0 W/m2
02:16 30.7 °F /  -0.7 °C 24.7 °F /  -4.1 °C 29.96in /  1014.4hPa North 15.0mph /  24.1km/h 15.0mph /  24.1km/h 78% 0.00in /  0mm 0.0 W/m2
02:21 30.6 °F /  -0.8 °C 24.6 °F /  -4.1 °C 29.95in /  1014.1hPa WSW 12.0mph /  19.3km/h 12.0mph /  19.3km/h 78% 0.00in /  0mm 0.0 W/m2
02:26 30.5 °F /  -0.8 °C 24.5 °F /  -4.2 °C 29.95in /  1014.1hPa West 18.4mph /  29.6km/h 18.4mph /  29.6km/h 78% 0.00in /  0mm 0.0 W/m2
02:31 30.3 °F /  -0.9 °C 24.3 °F /  -4.3 °C 29.95in /  1014.1hPa WSW 11.5mph /  18.5km/h 11.5mph /  18.5km/h 78% 0.00in /  0mm 0.0 W/m2
02:36 30.1 °F /  -1.1 °C 24.1 °F /  -4.4 °C 29.95in /  1014.1hPa North 15.0mph /  24.1km/h 15.0mph /  24.1km/h 78% 0.00in /  0mm 0.0 W/m2
02:41 30.0 °F /  -1.1 °C 24.0 °F /  -4.4 °C 29.95in /  1014.1hPa West 10.4mph /  16.7km/h 10.4mph /  16.7km/h 78% 0.00in /  0mm 0.0 W/m2
02:46 29.9 °F /  -1.2 °C 24.2 °F /  -4.3 °C 29.95in /  1014.1hPa WNW 11.5mph /  18.5km/h 11.5mph /  18.5km/h 79% 0.00in /  0mm 0.0 W/m2
02:51 29.8 °F /  -1.2 °C 24.1 °F /  -4.4 °C 29.95in /  1014.1hPa West 8.1mph /  13km/h 8.1mph /  13km/h 79% 0.00in /  0mm 0.0 W/m2
02:56 29.7 °F /  -1.3 °C 24.0 °F /  -4.4 °C 29.95in /  1014.1hPa West 11.5mph /  18.5km/h 11.5mph /  18.5km/h 79% 0.00in /  0mm 0.0 W/m2
03:01 29.7 °F /  -1.3 °C 24.0 °F /  -4.4 °C 29.95in /  1014.1hPa WSW 10.4mph /  16.7km/h 10.4mph /  16.7km/h 79% 0.00in /  0mm 0.0 W/m2
03:06 29.6 °F /  -1.3 °C 23.9 °F /  -4.5 °C 29.95in /  1014.1hPa WNW 4.6mph /  7.4km/h 4.6mph /  7.4km/h 79% 0.00in /  0mm 0.0 W/m2
03:11 29.5 °F /  -1.4 °C 24.1 °F /  -4.4 °C 29.95in /  1014.1hPa West 11.5mph /  18.5km/h 11.5mph /  18.5km/h 80% 0.00in /  0mm 0.0 W/m2
03:16 29.5 °F /  -1.4 °C 24.1 °F /  -4.4 °C 29.95in /  1014.1hPa North 11.5mph /  18.5km/h 11.5mph /  18.5km/h 80% 0.00in /  0mm 0.0 W/m2
03:21 29.6 °F /  -1.3 °C 24.2 °F /  -4.3 °C 29.95in /  1014.1hPa West 13.8mph /  22.2km/h 13.8mph /  22.2km/h 80% 0.00in /  0mm 0.0 W/m2
03:26 29.6 °F /  -1.3 °C 24.2 °F /  -4.3 °C 29.95in /  1014.1hPa WSW 10.4mph /  16.7km/h 10.4mph /  16.7km/h 80% 0.00in /  0mm 0.0 W/m2
03:31 29.7 °F /  -1.3 °C 24.3 °F /  -4.3 °C 29.95in /  1014.1hPa WNW 11.5mph /  18.5km/h 11.5mph /  18.5km/h 80% 0.00in /  0mm 0.0 W/m2
03:36 29.7 °F /  -1.3 °C 24.3 °F /  -4.3 °C 29.95in /  1014.1hPa West 11.5mph /  18.5km/h 11.5mph /  18.5km/h 80% 0.00in /  0mm 0.0 W/m2
03:41 29.7 °F /  -1.3 °C 24.3 °F /  -4.3 °C 29.95in /  1014.1hPa West 11.5mph /  18.5km/h 11.5mph /  18.5km/h 80% 0.00in /  0mm 0.0 W/m2
03:46 29.6 °F /  -1.3 °C 24.2 °F /  -4.3 °C 29.95in /  1014.1hPa WSW 13.8mph /  22.2km/h 13.8mph /  22.2km/h 80% 0.00in /  0mm 0.0 W/m2
03:51 29.4 °F /  -1.4 °C 23.7 °F /  -4.6 °C 29.95in /  1014.1hPa West 9.2mph /  14.8km/h 9.2mph /  14.8km/h 79% 0.00in /  0mm 0.0 W/m2
03:56 29.4 °F /  -1.4 °C 24.0 °F /  -4.4 °C 29.95in /  1014.1hPa WNW 14.0mph /  22.5km/h 14.0mph /  22.5km/h 80% 0.00in /  0mm 0.0 W/m2
04:01 29.4 °F /  -1.4 °C 24.0 °F /  -4.4 °C 29.95in /  1014.1hPa West 11.5mph /  18.5km/h 11.5mph /  18.5km/h 80% 0.00in /  0mm 0.0 W/m2
04:06 29.4 °F /  -1.4 °C 24.0 °F /  -4.4 °C 29.95in /  1014.1hPa WSW 15.0mph /  24.1km/h 15.0mph /  24.1km/h 80% 0.00in /  0mm 0.0 W/m2
04:11 29.3 °F /  -1.5 °C 23.9 °F /  -4.5 °C 29.95in /  1014.1hPa West 11.5mph /  18.5km/h 11.5mph /  18.5km/h 80% 0.00in /  0mm 0.0 W/m2
04:16 29.2 °F /  -1.6 °C 23.8 °F /  -4.6 °C 29.95in /  1014.1hPa North 10.4mph /  16.7km/h 10.4mph /  16.7km/h 80% 0.00in /  0mm 0.0 W/m2
04:21 29.2 °F /  -1.6 °C 23.8 °F /  -4.6 °C 29.95in /  1014.1hPa North 10.4mph /  16.7km/h 10.4mph /  16.7km/h 80% 0.00in /  0mm 0.0 W/m2
04:26 29.1 °F /  -1.6 °C 23.7 °F /  -4.6 °C 29.95in /  1014.1hPa WSW 11.5mph /  18.5km/h 11.5mph /  18.5km/h 80% 0.00in /  0mm 0.0 W/m2
04:31 29.1 °F /  -1.6 °C 24.0 °F /  -4.4 °C 29.95in /  1014.1hPa WSW 10.4mph /  16.7km/h 10.4mph /  16.7km/h 81% 0.00in /  0mm 0.0 W/m2
04:36 29.1 °F /  -1.6 °C 24.0 °F /  -4.4 °C 29.95in /  1014.1hPa WNW 9.2mph /  14.8km/h 9.2mph /  14.8km/h 81% 0.00in /  0mm 0.0 W/m2
04:41 29.2 °F /  -1.6 °C 23.8 °F /  -4.6 °C 29.95in /  1014.1hPa WNW 6.9mph /  11.1km/h 6.9mph /  11.1km/h 80% 0.00in /  0mm 0.0 W/m2
04:46 29.1 °F /  -1.6 °C 24.0 °F /  -4.4 °C 29.95in /  1014.1hPa SW 12.0mph /  19.3km/h 12.0mph /  19.3km/h 81% 0.00in /  0mm 0.0 W/m2
04:51 29.1 °F /  -1.6 °C 23.7 °F /  -4.6 °C 29.95in /  1014.1hPa West 11.5mph /  18.5km/h 11.5mph /  18.5km/h 80% 0.00in /  0mm 0.0 W/m2
04:56 29.1 °F /  -1.6 °C 23.7 °F /  -4.6 °C 29.95in /  1014.1hPa West 11.5mph /  18.5km/h 11.5mph /  18.5km/h 80% 0.00in /  0mm 0.0 W/m2
05:01 29.2 °F /  -1.6 °C 23.8 °F /  -4.6 °C 29.95in /  1014.1hPa West 11.5mph /  18.5km/h 11.5mph /  18.5km/h 80% 0.00in /  0mm 0.0 W/m2
05:06 29.1 °F /  -1.6 °C 23.7 °F /  -4.6 °C 29.95in /  1014.1hPa WNW 10.4mph /  16.7km/h 10.4mph /  16.7km/h 80% 0.00in /  0mm 0.0 W/m2
05:11 29.1 °F /  -1.6 °C 23.7 °F /  -4.6 °C 29.95in /  1014.1hPa WNW 11.5mph /  18.5km/h 11.5mph /  18.5km/h 80% 0.00in /  0mm 0.0 W/m2
05:16 29.1 °F /  -1.6 °C 23.7 °F /  -4.6 °C 29.95in /  1014.1hPa WSW 11.5mph /  18.5km/h 11.5mph /  18.5km/h 80% 0.00in /  0mm 0.0 W/m2
05:21 29.2 °F /  -1.6 °C 23.8 °F /  -4.6 °C 29.95in /  1014.1hPa West 10.4mph /  16.7km/h 10.4mph /  16.7km/h 80% 0.00in /  0mm 0.0 W/m2
05:26 29.3 °F /  -1.5 °C 24.2 °F /  -4.3 °C 29.95in /  1014.1hPa West 10.4mph /  16.7km/h 10.4mph /  16.7km/h 81% 0.00in /  0mm 0.0 W/m2
05:31 29.5 °F /  -1.4 °C 24.4 °F /  -4.2 °C 29.95in /  1014.1hPa WSW 10.4mph /  16.7km/h 10.4mph /  16.7km/h 81% 0.00in /  0mm 0.0 W/m2
05:36 29.6 °F /  -1.3 °C 24.2 °F /  -4.3 °C 29.94in /  1013.8hPa West 13.8mph /  22.2km/h 13.8mph /  22.2km/h 80% 0.00in /  0mm 0.0 W/m2
05:41 29.8 °F /  -1.2 °C 24.4 °F /  -4.2 °C 29.94in /  1013.8hPa WNW 11.5mph /  18.5km/h 11.5mph /  18.5km/h 80% 0.00in /  0mm 0.0 W/m2
05:46 29.9 °F /  -1.2 °C 24.5 °F /  -4.2 °C 29.94in /  1013.8hPa WSW 9.2mph /  14.8km/h 9.2mph /  14.8km/h 80% 0.00in /  0mm 0.0 W/m2
05:51 30.0 °F /  -1.1 °C 24.6 °F /  -4.1 °C 29.94in /  1013.8hPa West 8.1mph /  13km/h 8.1mph /  13km/h 80% 0.00in /  0mm 0.0 W/m2
05:56 30.0 °F /  -1.1 °C 24.3 °F /  -4.3 °C 29.94in /  1013.8hPa West 5.0mph /  8km/h 5.0mph /  8km/h 79% 0.00in /  0mm 0.0 W/m2
06:01 30.1 °F /  -1.1 °C 24.4 °F /  -4.2 °C 29.94in /  1013.8hPa West 4.6mph /  7.4km/h 4.6mph /  7.4km/h 79% 0.00in /  0mm 0.0 W/m2
06:06 30.2 °F /  -1 °C 24.5 °F /  -4.2 °C 29.94in /  1013.8hPa West 11.5mph /  18.5km/h 11.5mph /  18.5km/h 79% 0.00in /  0mm 0.0 W/m2
06:11 30.2 °F /  -1 °C 24.5 °F /  -4.2 °C 29.95in /  1014.1hPa NW 13.8mph /  22.2km/h 13.8mph /  22.2km/h 79% 0.00in /  0mm 5.0 W/m2
06:16 30.2 °F /  -1 °C 24.5 °F /  -4.2 °C 29.95in /  1014.1hPa WNW 10.4mph /  16.7km/h 10.4mph /  16.7km/h 79% 0.00in /  0mm 9.0 W/m2
06:21 30.3 °F /  -0.9 °C 24.3 °F /  -4.3 °C 29.95in /  1014.1hPa North 10.4mph /  16.7km/h 10.4mph /  16.7km/h 78% 0.00in /  0mm 14.0 W/m2
06:26 30.3 °F /  -0.9 °C 24.3 °F /  -4.3 °C 29.95in /  1014.1hPa West 10.4mph /  16.7km/h 10.4mph /  16.7km/h 78% 0.00in /  0mm 19.0 W/m2
06:31 30.2 °F /  -1 °C 24.5 °F /  -4.2 °C 29.95in /  1014.1hPa WNW 11.5mph /  18.5km/h 11.5mph /  18.5km/h 79% 0.00in /  0mm 25.0 W/m2
06:36 30.3 °F /  -0.9 °C 24.6 °F /  -4.1 °C 29.95in /  1014.1hPa North 13.8mph /  22.2km/h 13.8mph /  22.2km/h 79% 0.00in /  0mm 23.0 W/m2
06:41 30.3 °F /  -0.9 °C 24.6 °F /  -4.1 °C 29.95in /  1014.1hPa West 10.4mph /  16.7km/h 10.4mph /  16.7km/h 79% 0.00in /  0mm 30.0 W/m2
06:46 30.4 °F /  -0.9 °C 24.7 °F /  -4.1 °C 29.95in /  1014.1hPa West 8.1mph /  13km/h 8.1mph /  13km/h 79% 0.00in /  0mm 40.0 W/m2
06:51 30.5 °F /  -0.8 °C 24.8 °F /  -4 °C 29.95in /  1014.1hPa West 12.0mph /  19.3km/h 12.0mph /  19.3km/h 79% 0.00in /  0mm 53.0 W/m2
06:56 30.5 °F /  -0.8 °C 24.8 °F /  -4 °C 29.95in /  1014.1hPa WNW 8.0mph /  12.9km/h 8.0mph /  12.9km/h 79% 0.00in /  0mm 65.0 W/m2
07:01 30.6 °F /  -0.8 °C 24.9 °F /  -3.9 °C 29.96in /  1014.4hPa WNW 10.4mph /  16.7km/h 10.4mph /  16.7km/h 79% 0.00in /  0mm 81.0 W/m2
07:06 30.8 °F /  -0.7 °C 25.1 °F /  -3.8 °C 29.96in /  1014.4hPa WNW 13.8mph /  22.2km/h 13.8mph /  22.2km/h 79% 0.00in /  0mm 84.0 W/m2
07:11 30.8 °F /  -0.7 °C 24.7 °F /  -4.1 °C 29.96in /  1014.4hPa North 12.7mph /  20.4km/h 12.7mph /  20.4km/h 78% 0.00in /  0mm 67.0 W/m2
07:16 30.7 °F /  -0.7 °C 25.0 °F /  -3.9 °C 29.96in /  1014.4hPa West 13.0mph /  20.9km/h 13.0mph /  20.9km/h 79% 0.00in /  0mm 91.0 W/m2
07:21 30.7 °F /  -0.7 °C 25.0 °F /  -3.9 °C 29.96in /  1014.4hPa West 12.0mph /  19.3km/h 12.0mph /  19.3km/h 79% 0.00in /  0mm 156.0 W/m2
07:26 30.8 °F /  -0.7 °C 25.4 °F /  -3.7 °C 29.96in /  1014.4hPa WNW 8.1mph /  13km/h 8.1mph /  13km/h 80% 0.00in /  0mm 77.0 W/m2
07:31 30.8 °F /  -0.7 °C 25.4 °F /  -3.7 °C 29.96in /  1014.4hPa West 12.7mph /  20.4km/h 12.7mph /  20.4km/h 80% 0.00in /  0mm 79.0 W/m2
07:36 30.9 °F /  -0.6 °C 25.5 °F /  -3.6 °C 29.96in /  1014.4hPa West 11.5mph /  18.5km/h 11.5mph /  18.5km/h 80% 0.00in /  0mm 91.0 W/m2
07:41 31.0 °F /  -0.6 °C 25.6 °F /  -3.6 °C 29.96in /  1014.4hPa West 8.1mph /  13km/h 8.1mph /  13km/h 80% 0.00in /  0mm 84.0 W/m2
07:46 31.0 °F /  -0.6 °C 25.6 °F /  -3.6 °C 29.96in /  1014.4hPa WSW 9.2mph /  14.8km/h 9.2mph /  14.8km/h 80% 0.00in /  0mm 107.0 W/m2
07:51 31.1 °F /  -0.5 °C 25.7 °F /  -3.5 °C 29.96in /  1014.4hPa WSW 11.5mph /  18.5km/h 11.5mph /  18.5km/h 80% 0.00in /  0mm 107.0 W/m2
07:56 31.3 °F /  -0.4 °C 25.8 °F /  -3.4 °C 29.96in /  1014.4hPa West 10.4mph /  16.7km/h 10.4mph /  16.7km/h 80% 0.00in /  0mm 111.0 W/m2
08:01 31.4 °F /  -0.3 °C 25.6 °F /  -3.6 °C 29.96in /  1014.4hPa West 8.1mph /  13km/h 8.1mph /  13km/h 79% 0.00in /  0mm 123.0 W/m2
08:06 31.8 °F /  -0.1 °C 26.0 °F /  -3.3 °C 29.96in /  1014.4hPa WNW 8.0mph /  12.9km/h 8.0mph /  12.9km/h 79% 0.00in /  0mm 323.0 W/m2
08:11 32.1 °F /  0.1 °C 26.0 °F /  -3.3 °C 29.96in /  1014.4hPa NW 9.2mph /  14.8km/h 9.2mph /  14.8km/h 78% 0.00in /  0mm 329.0 W/m2
08:16 32.5 °F /  0.3 °C 25.8 °F /  -3.4 °C 29.95in /  1014.1hPa NW 12.7mph /  20.4km/h 12.7mph /  20.4km/h 76% 0.00in /  0mm 334.0 W/m2
08:21 32.9 °F /  0.5 °C 26.2 °F /  -3.2 °C 29.95in /  1014.1hPa West 12.7mph /  20.4km/h 12.7mph /  20.4km/h 76% 0.00in /  0mm 336.0 W/m2
08:26 33.3 °F /  0.7 °C 26.2 °F /  -3.2 °C 29.95in /  1014.1hPa NW 11.0mph /  17.7km/h 11.0mph /  17.7km/h 75% 0.00in /  0mm 392.0 W/m2
08:31 33.4 °F /  0.8 °C 26.3 °F /  -3.2 °C 29.95in /  1014.1hPa North 11.5mph /  18.5km/h 11.5mph /  18.5km/h 75% 0.00in /  0mm 323.0 W/m2
08:36 33.1 °F /  0.6 °C 25.7 °F /  -3.5 °C 29.95in /  1014.1hPa WNW 12.7mph /  20.4km/h 12.7mph /  20.4km/h 74% 0.00in /  0mm 160.0 W/m2
08:41 33.4 °F /  0.8 °C 25.7 °F /  -3.5 °C 29.95in /  1014.1hPa NW 16.1mph /  25.9km/h 16.1mph /  25.9km/h 73% 0.00in /  0mm 559.0 W/m2
08:46 33.2 °F /  0.7 °C 25.5 °F /  -3.6 °C 29.95in /  1014.1hPa NW 17.0mph /  27.4km/h 17.0mph /  27.4km/h 73% 0.00in /  0mm 587.0 W/m2
08:51 33.2 °F /  0.7 °C 25.5 °F /  -3.6 °C 29.95in /  1014.1hPa NW 16.1mph /  25.9km/h 16.1mph /  25.9km/h 73% 0.00in /  0mm 292.0 W/m2
08:56 33.4 °F /  0.8 °C 25.3 °F /  -3.7 °C 29.95in /  1014.1hPa NW 16.1mph /  25.9km/h 16.1mph /  25.9km/h 72% 0.00in /  0mm 188.0 W/m2
09:01 33.7 °F /  0.9 °C 26.0 °F /  -3.3 °C 29.95in /  1014.1hPa WNW 12.7mph /  20.4km/h 12.7mph /  20.4km/h 73% 0.00in /  0mm 640.0 W/m2
09:06 34.1 °F /  1.2 °C 26.0 °F /  -3.3 °C 29.95in /  1014.1hPa North 15.0mph /  24.1km/h 15.0mph /  24.1km/h 72% 0.00in /  0mm 190.0 W/m2
09:11 34.2 °F /  1.2 °C 26.8 °F /  -2.9 °C 29.94in /  1013.8hPa SW 9.2mph /  14.8km/h 9.2mph /  14.8km/h 74% 0.00in /  0mm 262.0 W/m2
09:16 33.9 °F /  1.1 °C 25.8 °F /  -3.4 °C 29.95in /  1014.1hPa North 11.5mph /  18.5km/h 11.5mph /  18.5km/h 72% 0.00in /  0mm 221.0 W/m2
09:21 34.3 °F /  1.3 °C 26.2 °F /  -3.2 °C 29.95in /  1014.1hPa NW 16.1mph /  25.9km/h 16.1mph /  25.9km/h 72% 0.00in /  0mm 295.0 W/m2
09:26 34.1 °F /  1.2 °C 26.0 °F /  -3.3 °C 29.95in /  1014.1hPa WNW 12.0mph /  19.3km/h 12.0mph /  19.3km/h 72% 0.00in /  0mm 179.0 W/m2
09:31 33.7 °F /  0.9 °C 25.6 °F /  -3.6 °C 29.95in /  1014.1hPa NNW 11.5mph /  18.5km/h 11.5mph /  18.5km/h 72% 0.00in /  0mm 185.0 W/m2
09:36 34.1 °F /  1.2 °C 27.0 °F /  -2.8 °C 29.94in /  1013.8hPa NW 11.5mph /  18.5km/h 11.5mph /  18.5km/h 75% 0.00in /  0mm 185.0 W/m2
09:41 34.4 °F /  1.3 °C 26.3 °F /  -3.2 °C 29.94in /  1013.8hPa NW 12.7mph /  20.4km/h 12.7mph /  20.4km/h 72% 0.00in /  0mm 745.0 W/m2
09:46 35.2 °F /  1.8 °C 27.1 °F /  -2.7 °C 29.94in /  1013.8hPa NW 11.5mph /  18.5km/h 12.0mph /  19.3km/h 72% 0.00in /  0mm 780.0 W/m2
09:51 35.1 °F /  1.7 °C 26.6 °F /  -3 °C 29.94in /  1013.8hPa NW 11.5mph /  18.5km/h 11.5mph /  18.5km/h 71% 0.00in /  0mm 810.0 W/m2
09:56 35.2 °F /  1.8 °C 26.0 °F /  -3.3 °C 29.95in /  1014.1hPa WNW 13.8mph /  22.2km/h 13.8mph /  22.2km/h 69% 0.00in /  0mm 255.0 W/m2
10:01 35.2 °F /  1.8 °C 26.4 °F /  -3.1 °C 29.95in /  1014.1hPa NNW 19.6mph /  31.5km/h 19.6mph /  31.5km/h 70% 0.00in /  0mm 766.0 W/m2
10:06 35.4 °F /  1.9 °C 26.6 °F /  -3 °C 29.94in /  1013.8hPa WNW 15.0mph /  24.1km/h 15.0mph /  24.1km/h 70% 0.00in /  0mm 796.0 W/m2
10:11 36.0 °F /  2.2 °C 27.2 °F /  -2.7 °C 29.95in /  1014.1hPa WNW 17.3mph /  27.8km/h 17.3mph /  27.8km/h 70% 0.00in /  0mm 211.0 W/m2
10:16 34.9 °F /  1.6 °C 24.7 °F /  -4.1 °C 29.95in /  1014.1hPa WNW 19.6mph /  31.5km/h 19.6mph /  31.5km/h 66% 0.00in /  0mm 167.0 W/m2
10:21 35.2 °F /  1.8 °C 26.4 °F /  -3.1 °C 29.94in /  1013.8hPa NW 11.5mph /  18.5km/h 11.5mph /  18.5km/h 70% 0.00in /  0mm 703.0 W/m2
10:27 35.5 °F /  1.9 °C 26.3 °F /  -3.2 °C 29.94in /  1013.8hPa WNW 12.0mph /  19.3km/h 12.0mph /  19.3km/h 69% 0.00in /  0mm 260.0 W/m2
10:32 35.3 °F /  1.8 °C 25.4 °F /  -3.7 °C 29.95in /  1014.1hPa WNW 11.5mph /  18.5km/h 11.5mph /  18.5km/h 67% 0.00in /  0mm 309.0 W/m2
10:37 35.5 °F /  1.9 °C 26.7 °F /  -2.9 °C 29.95in /  1014.1hPa NW 11.5mph /  18.5km/h 11.5mph /  18.5km/h 70% 0.00in /  0mm 772.0 W/m2
10:42 35.4 °F /  1.9 °C 24.8 °F /  -4 °C 29.95in /  1014.1hPa North 15.0mph /  24.1km/h 15.0mph /  24.1km/h 65% 0.00in /  0mm 244.0 W/m2
10:47 35.2 °F /  1.8 °C 25.3 °F /  -3.7 °C 29.94in /  1013.8hPa NW 15.0mph /  24.1km/h 15.0mph /  24.1km/h 67% 0.00in /  0mm 243.0 W/m2
10:52 35.6 °F /  2 °C 26.4 °F /  -3.1 °C 29.94in /  1013.8hPa WNW 12.7mph /  20.4km/h 12.7mph /  20.4km/h 69% 0.00in /  0mm 527.0 W/m2
10:57 36.1 °F /  2.3 °C 25.8 °F /  -3.4 °C 29.94in /  1013.8hPa WNW 12.7mph /  20.4km/h 12.7mph /  20.4km/h 66% 0.00in /  0mm 371.0 W/m2
11:02 35.9 °F /  2.2 °C 25.6 °F /  -3.6 °C 29.94in /  1013.8hPa WNW 16.1mph /  25.9km/h 16.1mph /  25.9km/h 66% 0.00in /  0mm 308.0 W/m2
11:07 35.6 °F /  2 °C 25.4 °F /  -3.7 °C 29.94in /  1013.8hPa NW 11.5mph /  18.5km/h 11.5mph /  18.5km/h 66% 0.00in /  0mm 376.0 W/m2
11:12 36.0 °F /  2.2 °C 26.8 °F /  -2.9 °C 29.94in /  1013.8hPa NW 11.5mph /  18.5km/h 11.5mph /  18.5km/h 69% 0.00in /  0mm 376.0 W/m2
11:17 36.8 °F /  2.7 °C 27.6 °F /  -2.4 °C 29.94in /  1013.8hPa NW 10.4mph /  16.7km/h 10.4mph /  16.7km/h 69% 0.00in /  0mm 1204.0 W/m2
11:22 36.5 °F /  2.5 °C 25.5 °F /  -3.6 °C 29.94in /  1013.8hPa WNW 11.0mph /  17.7km/h 11.0mph /  17.7km/h 64% 0.00in /  0mm 313.0 W/m2
11:27 36.1 °F /  2.3 °C 25.5 °F /  -3.6 °C 29.94in /  1013.8hPa NW 12.7mph /  20.4km/h 12.7mph /  20.4km/h 65% 0.00in /  0mm 431.0 W/m2
11:32 36.1 °F /  2.3 °C 26.2 °F /  -3.2 °C 29.94in /  1013.8hPa WSW 11.5mph /  18.5km/h 11.5mph /  18.5km/h 67% 0.00in /  0mm 323.0 W/m2
11:37 36.3 °F /  2.4 °C 26.7 °F /  -2.9 °C 29.94in /  1013.8hPa NNW 11.5mph /  18.5km/h 11.5mph /  18.5km/h 68% 0.00in /  0mm 359.0 W/m2
11:42 36.7 °F /  2.6 °C 26.0 °F /  -3.3 °C 29.94in /  1013.8hPa NW 11.5mph /  18.5km/h 11.5mph /  18.5km/h 65% 0.00in /  0mm 311.0 W/m2
11:47 37.2 °F /  2.9 °C 27.6 °F /  -2.4 °C 29.94in /  1013.8hPa North 10.4mph /  16.7km/h 10.4mph /  16.7km/h 68% 0.00in /  0mm 360.0 W/m2
11:52 37.8 °F /  3.2 °C 27.1 °F /  -2.7 °C 29.94in /  1013.8hPa WNW 11.5mph /  18.5km/h 11.5mph /  18.5km/h 65% 0.00in /  0mm 336.0 W/m2
11:57 37.4 °F /  3 °C 26.7 °F /  -2.9 °C 29.94in /  1013.8hPa NW 11.5mph /  18.5km/h 11.5mph /  18.5km/h 65% 0.00in /  0mm 737.0 W/m2
12:02 37.3 °F /  2.9 °C 27.0 °F /  -2.8 °C 29.94in /  1013.8hPa WNW 13.8mph /  22.2km/h 13.8mph /  22.2km/h 66% 0.00in /  0mm 385.0 W/m2
12:07 37.2 °F /  2.9 °C 26.9 °F /  -2.8 °C 29.95in /  1014.1hPa NW 10.4mph /  16.7km/h 10.4mph /  16.7km/h 66% 0.00in /  0mm 489.0 W/m2
12:12 37.5 °F /  3.1 °C 27.2 °F /  -2.7 °C 29.95in /  1014.1hPa WNW 5.8mph /  9.3km/h 5.8mph /  9.3km/h 66% 0.00in /  0mm 427.0 W/m2
12:17 37.6 °F /  3.1 °C 26.9 °F /  -2.8 °C 29.95in /  1014.1hPa WNW 12.7mph /  20.4km/h 12.7mph /  20.4km/h 65% 0.00in /  0mm 378.0 W/m2
12:22 37.4 °F /  3 °C 26.3 °F /  -3.2 °C 29.95in /  1014.1hPa NW 12.7mph /  20.4km/h 12.7mph /  20.4km/h 64% 0.00in /  0mm 357.0 W/m2
12:27 37.5 °F /  3.1 °C 27.2 °F /  -2.7 °C 29.95in /  1014.1hPa NW 10.4mph /  16.7km/h 10.4mph /  16.7km/h 66% 0.00in /  0mm 301.0 W/m2
12:32 37.4 °F /  3 °C 26.7 °F /  -2.9 °C 29.95in /  1014.1hPa NW 10.4mph /  16.7km/h 10.4mph /  16.7km/h 65% 0.00in /  0mm 338.0 W/m2
12:37 37.4 °F /  3 °C 27.1 °F /  -2.7 °C 29.94in /  1013.8hPa NW 10.4mph /  16.7km/h 10.4mph /  16.7km/h 66% 0.00in /  0mm 397.0 W/m2
12:42 37.6 °F /  3.1 °C 27.3 °F /  -2.6 °C 29.94in /  1013.8hPa WNW 8.1mph /  13km/h 8.1mph /  13km/h 66% 0.00in /  0mm 341.0 W/m2
12:47 37.4 °F /  3 °C 26.3 °F /  -3.2 °C 29.94in /  1013.8hPa WSW 12.0mph /  19.3km/h 12.0mph /  19.3km/h 64% 0.00in /  0mm 404.0 W/m2
12:52 37.3 °F /  2.9 °C 27.0 °F /  -2.8 °C 29.94in /  1013.8hPa NW 12.7mph /  20.4km/h 12.7mph /  20.4km/h 66% 0.00in /  0mm 439.0 W/m2
12:57 37.8 °F /  3.2 °C 27.8 °F /  -2.3 °C 29.94in /  1013.8hPa WNW 10.4mph /  16.7km/h 10.4mph /  16.7km/h 67% 0.00in /  0mm 411.0 W/m2
13:02 38.4 °F /  3.6 °C 28.0 °F /  -2.2 °C 29.94in /  1013.8hPa NW 12.7mph /  20.4km/h 12.7mph /  20.4km/h 66% 0.00in /  0mm 589.0 W/m2
13:07 38.3 °F /  3.5 °C 26.8 °F /  -2.9 °C 29.94in /  1013.8hPa West 10.4mph /  16.7km/h 10.4mph /  16.7km/h 63% 0.00in /  0mm 420.0 W/m2
13:12 38.3 °F /  3.5 °C 27.6 °F /  -2.4 °C 29.94in /  1013.8hPa NW 12.7mph /  20.4km/h 12.7mph /  20.4km/h 65% 0.00in /  0mm 482.0 W/m2
13:17 38.8 °F /  3.8 °C 28.8 °F /  -1.8 °C 29.94in /  1013.8hPa West 12.7mph /  20.4km/h 12.7mph /  20.4km/h 67% 0.00in /  0mm 693.0 W/m2
13:22 39.0 °F /  3.9 °C 28.2 °F /  -2.1 °C 29.94in /  1013.8hPa North 8.1mph /  13km/h 8.1mph /  13km/h 65% 0.00in /  0mm 438.0 W/m2
13:27 38.6 °F /  3.7 °C 27.5 °F /  -2.5 °C 29.93in /  1013.4hPa NW 12.7mph /  20.4km/h 12.7mph /  20.4km/h 64% 0.00in /  0mm 462.0 W/m2
13:32 38.7 °F /  3.7 °C 27.6 °F /  -2.4 °C 29.93in /  1013.4hPa NW 10.4mph /  16.7km/h 10.4mph /  16.7km/h 64% 0.00in /  0mm 452.0 W/m2
13:37 38.9 °F /  3.8 °C 28.5 °F /  -1.9 °C 29.93in /  1013.4hPa NNW 9.0mph /  14.5km/h 9.0mph /  14.5km/h 66% 0.00in /  0mm 540.0 W/m2
13:42 39.5 °F /  4.2 °C 28.3 °F /  -2.1 °C 29.94in /  1013.8hPa WNW 11.5mph /  18.5km/h 11.5mph /  18.5km/h 64% 0.00in /  0mm 399.0 W/m2
13:47 39.5 °F /  4.2 °C 28.3 °F /  -2.1 °C 29.93in /  1013.4hPa WNW 9.2mph /  14.8km/h 9.2mph /  14.8km/h 64% 0.00in /  0mm 418.0 W/m2
13:52 39.1 °F /  3.9 °C 27.6 °F /  -2.4 °C 29.93in /  1013.4hPa WNW 10.4mph /  16.7km/h 10.4mph /  16.7km/h 63% 0.00in /  0mm 338.0 W/m2
13:57 38.8 °F /  3.8 °C 27.3 °F /  -2.6 °C 29.93in /  1013.4hPa NW 11.5mph /  18.5km/h 11.5mph /  18.5km/h 63% 0.00in /  0mm 378.0 W/m2
14:02 38.8 °F /  3.8 °C 27.7 °F /  -2.4 °C 29.93in /  1013.4hPa North 9.0mph /  14.5km/h 9.0mph /  14.5km/h 64% 0.00in /  0mm 531.0 W/m2
14:07 39.4 °F /  4.1 °C 29.0 °F /  -1.7 °C 29.93in /  1013.4hPa NW 10.4mph /  16.7km/h 10.4mph /  16.7km/h 66% 0.00in /  0mm 555.0 W/m2
14:12 39.8 °F /  4.3 °C 28.2 °F /  -2.1 °C 29.93in /  1013.4hPa West 10.4mph /  16.7km/h 10.4mph /  16.7km/h 63% 0.00in /  0mm 499.0 W/m2
14:17 39.6 °F /  4.2 °C 27.6 °F /  -2.4 °C 29.92in /  1013.1hPa SW 9.2mph /  14.8km/h 9.2mph /  14.8km/h 62% 0.00in /  0mm 424.0 W/m2
14:22 39.9 °F /  4.4 °C 28.3 °F /  -2.1 °C 29.92in /  1013.1hPa WNW 11.5mph /  18.5km/h 11.5mph /  18.5km/h 63% 0.00in /  0mm 663.0 W/m2
14:27 40.0 °F /  4.4 °C 28.8 °F /  -1.8 °C 29.92in /  1013.1hPa WNW 11.5mph /  18.5km/h 11.5mph /  18.5km/h 64% 0.00in /  0mm 452.0 W/m2
14:32 40.1 °F /  4.5 °C 28.5 °F /  -1.9 °C 29.92in /  1013.1hPa North 6.0mph /  9.7km/h 6.0mph /  9.7km/h 63% 0.00in /  0mm 450.0 W/m2
14:37 40.1 °F /  4.5 °C 28.9 °F /  -1.7 °C 29.92in /  1013.1hPa NW 12.7mph /  20.4km/h 12.7mph /  20.4km/h 64% 0.00in /  0mm 503.0 W/m2
14:42 39.9 °F /  4.4 °C 28.3 °F /  -2.1 °C 29.92in /  1013.1hPa WNW 8.1mph /  13km/h 8.1mph /  13km/h 63% 0.00in /  0mm 383.0 W/m2
14:47 40.0 °F /  4.4 °C 28.4 °F /  -2 °C 29.92in /  1013.1hPa North 11.5mph /  18.5km/h 11.5mph /  18.5km/h 63% 0.00in /  0mm 387.0 W/m2
14:52 40.1 °F /  4.5 °C 28.9 °F /  -1.7 °C 29.92in /  1013.1hPa WNW 10.4mph /  16.7km/h 10.4mph /  16.7km/h 64% 0.00in /  0mm 487.0 W/m2
14:57 41.0 °F /  5 °C 29.4 °F /  -1.4 °C 29.92in /  1013.1hPa WSW 11.5mph /  18.5km/h 11.5mph /  18.5km/h 63% 0.00in /  0mm 573.0 W/m2
15:02 41.1 °F /  5.1 °C 28.3 °F /  -2.1 °C 29.92in /  1013.1hPa North 5.8mph /  9.3km/h 5.8mph /  9.3km/h 60% 0.00in /  0mm 413.0 W/m2
15:07 41.0 °F /  5 °C 28.6 °F /  -1.9 °C 29.92in /  1013.1hPa WNW 8.1mph /  13km/h 8.1mph /  13km/h 61% 0.00in /  0mm 313.0 W/m2
15:12 40.6 °F /  4.8 °C 28.6 °F /  -1.9 °C 29.92in /  1013.1hPa WNW 8.1mph /  13km/h 8.1mph /  13km/h 62% 0.00in /  0mm 343.0 W/m2
15:17 40.6 °F /  4.8 °C 29.4 °F /  -1.4 °C 29.92in /  1013.1hPa NW 2.3mph /  3.7km/h 2.3mph /  3.7km/h 64% 0.00in /  0mm 374.0 W/m2
15:22 40.7 °F /  4.8 °C 28.3 °F /  -2.1 °C 29.91in /  1012.8hPa North 10.4mph /  16.7km/h 10.4mph /  16.7km/h 61% 0.00in /  0mm 364.0 W/m2
15:27 40.7 °F /  4.8 °C 28.7 °F /  -1.8 °C 29.92in /  1013.1hPa WNW 11.5mph /  18.5km/h 11.5mph /  18.5km/h 62% 0.00in /  0mm 403.0 W/m2
15:32 40.8 °F /  4.9 °C 28.8 °F /  -1.8 °C 29.92in /  1013.1hPa NW 10.4mph /  16.7km/h 10.4mph /  16.7km/h 62% 0.00in /  0mm 441.0 W/m2
15:37 41.2 °F /  5.1 °C 29.9 °F /  -1.2 °C 29.92in /  1013.1hPa North 9.2mph /  14.8km/h 9.2mph /  14.8km/h 64% 0.00in /  0mm 993.0 W/m2
15:42 41.3 °F /  5.2 °C 29.3 °F /  -1.5 °C 29.92in /  1013.1hPa NW 8.1mph /  13km/h 8.1mph /  13km/h 62% 0.00in /  0mm 345.0 W/m2
15:47 41.3 °F /  5.2 °C 29.6 °F /  -1.3 °C 29.92in /  1013.1hPa WNW 11.5mph /  18.5km/h 11.5mph /  18.5km/h 63% 0.00in /  0mm 364.0 W/m2
15:52 41.2 °F /  5.1 °C 29.5 °F /  -1.4 °C 29.92in /  1013.1hPa North 9.2mph /  14.8km/h 9.2mph /  14.8km/h 63% 0.00in /  0mm 283.0 W/m2
15:57 40.7 °F /  4.8 °C 28.3 °F /  -2.1 °C 29.91in /  1012.8hPa NW 2.3mph /  3.7km/h 2.3mph /  3.7km/h 61% 0.00in /  0mm 258.0 W/m2
16:02 40.6 °F /  4.8 °C 29.4 °F /  -1.4 °C 29.91in /  1012.8hPa NW 9.2mph /  14.8km/h 9.2mph /  14.8km/h 64% 0.00in /  0mm 353.0 W/m2
16:07 40.6 °F /  4.8 °C 28.6 °F /  -1.9 °C 29.91in /  1012.8hPa WNW 10.4mph /  16.7km/h 10.4mph /  16.7km/h 62% 0.00in /  0mm 278.0 W/m2
16:12 40.7 °F /  4.8 °C 28.7 °F /  -1.8 °C 29.91in /  1012.8hPa NNW 6.9mph /  11.1km/h 6.9mph /  11.1km/h 62% 0.00in /  0mm 316.0 W/m2
16:17 40.7 °F /  4.8 °C 29.1 °F /  -1.6 °C 29.91in /  1012.8hPa NW 9.2mph /  14.8km/h 9.2mph /  14.8km/h 63% 0.00in /  0mm 264.0 W/m2
16:22 40.8 °F /  4.9 °C 29.9 °F /  -1.2 °C 29.91in /  1012.8hPa NNW 8.1mph /  13km/h 8.1mph /  13km/h 65% 0.00in /  0mm 288.0 W/m2
16:27 41.0 °F /  5 °C 29.7 °F /  -1.3 °C 29.91in /  1012.8hPa NW 9.2mph /  14.8km/h 9.2mph /  14.8km/h 64% 0.00in /  0mm 378.0 W/m2
16:32 41.7 °F /  5.4 °C 30.8 °F /  -0.7 °C 29.91in /  1012.8hPa WNW 9.2mph /  14.8km/h 9.2mph /  14.8km/h 65% 0.00in /  0mm 264.0 W/m2
16:37 41.9 °F /  5.5 °C 29.8 °F /  -1.2 °C 29.90in /  1012.4hPa WNW 5.8mph /  9.3km/h 5.8mph /  9.3km/h 62% 0.00in /  0mm 267.0 W/m2
16:42 42.2 °F /  5.7 °C 31.3 °F /  -0.4 °C 29.90in /  1012.4hPa NW 6.9mph /  11.1km/h 6.9mph /  11.1km/h 65% 0.00in /  0mm 591.0 W/m2
16:47 42.0 °F /  5.6 °C 29.1 °F /  -1.6 °C 29.90in /  1012.4hPa NW 8.1mph /  13km/h 8.1mph /  13km/h 60% 0.00in /  0mm 153.0 W/m2
16:52 41.5 °F /  5.3 °C 29.4 °F /  -1.4 °C 29.90in /  1012.4hPa NW 9.2mph /  14.8km/h 9.2mph /  14.8km/h 62% 0.00in /  0mm 185.0 W/m2
16:57 41.0 °F /  5 °C 29.4 °F /  -1.4 °C 29.90in /  1012.4hPa NW 6.9mph /  11.1km/h 6.9mph /  11.1km/h 63% 0.00in /  0mm 408.0 W/m2
17:02 41.4 °F /  5.2 °C 29.7 °F /  -1.3 °C 29.90in /  1012.4hPa NW 11.5mph /  18.5km/h 11.5mph /  18.5km/h 63% 0.00in /  0mm 475.0 W/m2
17:07 41.4 °F /  5.2 °C 29.3 °F /  -1.5 °C 29.90in /  1012.4hPa WNW 9.2mph /  14.8km/h 9.2mph /  14.8km/h 62% 0.00in /  0mm 93.0 W/m2
17:12 41.0 °F /  5 °C 29.4 °F /  -1.4 °C 29.90in /  1012.4hPa NW 1.2mph /  1.9km/h   63% 0.00in /  0mm 162.0 W/m2
17:17 41.2 °F /  5.1 °C 29.9 °F /  -1.2 °C 29.90in /  1012.4hPa Calm     64% 0.00in /  0mm 464.0 W/m2
17:22 41.4 °F /  5.2 °C 30.1 °F /  -1.1 °C 29.90in /  1012.4hPa Calm     64% 0.00in /  0mm 139.0 W/m2
17:27 41.5 °F /  5.3 °C 29.8 °F /  -1.2 °C 29.91in /  1012.8hPa NW 1.2mph /  1.9km/h 1.2mph /  1.9km/h 63% 0.00in /  0mm 125.0 W/m2
17:32 41.9 °F /  5.5 °C 30.2 °F /  -1 °C 29.90in /  1012.4hPa NW 6.9mph /  11.1km/h 6.9mph /  11.1km/h 63% 0.00in /  0mm 441.0 W/m2
17:37 42.4 °F /  5.8 °C 31.1 °F /  -0.5 °C 29.90in /  1012.4hPa North 6.9mph /  11.1km/h 6.9mph /  11.1km/h 64% 0.00in /  0mm 403.0 W/m2
17:42 43.0 °F /  6.1 °C 30.9 °F /  -0.6 °C 29.91in /  1012.8hPa North 3.5mph /  5.6km/h 3.5mph /  5.6km/h 62% 0.00in /  0mm 367.0 W/m2
17:47 43.1 °F /  6.2 °C 30.6 °F /  -0.8 °C 29.91in /  1012.8hPa NW 7.0mph /  11.3km/h 7.0mph /  11.3km/h 61% 0.00in /  0mm 90.0 W/m2
17:52 42.2 °F /  5.7 °C 29.7 °F /  -1.3 °C 29.91in /  1012.8hPa NW 6.9mph /  11.1km/h 6.9mph /  11.1km/h 61% 0.00in /  0mm 232.0 W/m2
17:57 42.0 °F /  5.6 °C 29.9 °F /  -1.2 °C 29.91in /  1012.8hPa NW 1.2mph /  1.9km/h 1.2mph /  1.9km/h 62% 0.00in /  0mm 299.0 W/m2
18:02 42.2 °F /  5.7 °C 29.3 °F /  -1.5 °C 29.91in /  1012.8hPa NNW 7.0mph /  11.3km/h 7.0mph /  11.3km/h 60% 0.00in /  0mm 258.0 W/m2
18:07 42.3 °F /  5.7 °C 29.0 °F /  -1.7 °C 29.91in /  1012.8hPa Calm     59% 0.00in /  0mm 135.0 W/m2
18:12 42.3 °F /  5.7 °C 29.8 °F /  -1.2 °C 29.92in /  1013.1hPa NW 2.0mph /  3.2km/h 2.0mph /  3.2km/h 61% 0.00in /  0mm 107.0 W/m2
18:17 42.1 °F /  5.6 °C 29.2 °F /  -1.6 °C 29.91in /  1012.8hPa North 3.5mph /  5.6km/h 3.5mph /  5.6km/h 60% 0.00in /  0mm 95.0 W/m2
18:22 41.6 °F /  5.3 °C 29.5 °F /  -1.4 °C 29.91in /  1012.8hPa Calm     62% 0.00in /  0mm 65.0 W/m2
18:27 41.3 °F /  5.2 °C 29.3 °F /  -1.5 °C 29.91in /  1012.8hPa NNW 2.3mph /  3.7km/h   62% 0.00in /  0mm 135.0 W/m2
18:32 41.0 °F /  5 °C 29.7 °F /  -1.3 °C 29.91in /  1012.8hPa NNW 2.3mph /  3.7km/h 2.3mph /  3.7km/h 64% 0.00in /  0mm 53.0 W/m2
18:37 40.8 °F /  4.9 °C 29.6 °F /  -1.3 °C 29.90in /  1012.4hPa Calm     64% 0.00in /  0mm 42.0 W/m2
18:42 40.6 °F /  4.8 °C 29.0 °F /  -1.7 °C 29.90in /  1012.4hPa Calm     63% 0.00in /  0mm 39.0 W/m2
18:47 40.5 °F /  4.7 °C 28.9 °F /  -1.7 °C 29.91in /  1012.8hPa Calm     63% 0.00in /  0mm 37.0 W/m2
18:52 40.5 °F /  4.7 °C 28.9 °F /  -1.7 °C 29.91in /  1012.8hPa Calm     63% 0.00in /  0mm 33.0 W/m2
18:58 40.5 °F /  4.7 °C 28.9 °F /  -1.7 °C 29.91in /  1012.8hPa WNW 1.2mph /  1.9km/h 1.2mph /  1.9km/h 63% 0.00in /  0mm 35.0 W/m2
19:03 40.4 °F /  4.7 °C 28.8 °F /  -1.8 °C 29.91in /  1012.8hPa Calm     63% 0.00in /  0mm 33.0 W/m2
19:08 40.3 °F /  4.6 °C 28.7 °F /  -1.8 °C 29.91in /  1012.8hPa Calm     63% 0.00in /  0mm 25.0 W/m2
19:13 40.1 °F /  4.5 °C 28.9 °F /  -1.7 °C 29.91in /  1012.8hPa Calm     64% 0.00in /  0mm 19.0 W/m2
19:18 39.8 °F /  4.3 °C 28.6 °F /  -1.9 °C 29.91in /  1012.8hPa Calm     64% 0.00in /  0mm 14.0 W/m2
19:23 39.6 °F /  4.2 °C 29.2 °F /  -1.6 °C 29.92in /  1013.1hPa NE 4.0mph /  6.4km/h 4.3mph /  6.9km/h 66% 0.00in /  0mm 12.0 W/m2
19:28 38.5 °F /  3.6 °C 29.2 °F /  -1.6 °C 29.92in /  1013.1hPa NE 10.4mph /  16.7km/h 10.4mph /  16.7km/h 69% 0.00in /  0mm 7.0 W/m2
19:33 37.5 °F /  3.1 °C 29.3 °F /  -1.5 °C 29.92in /  1013.1hPa NE 8.1mph /  13km/h 8.1mph /  13km/h 72% 0.00in /  0mm 0.0 W/m2
19:38 36.9 °F /  2.7 °C 29.1 °F /  -1.6 °C 29.92in /  1013.1hPa NE 5.8mph /  9.3km/h 5.8mph /  9.3km/h 73% 0.00in /  0mm 0.0 W/m2
19:43 36.2 °F /  2.3 °C 28.7 °F /  -1.8 °C 29.92in /  1013.1hPa NE 4.6mph /  7.4km/h 4.6mph /  7.4km/h 74% 0.00in /  0mm 0.0 W/m2
19:48 35.7 °F /  2.1 °C 28.9 °F /  -1.7 °C 29.93in /  1013.4hPa NNE 3.5mph /  5.6km/h 3.5mph /  5.6km/h 76% 0.00in /  0mm 0.0 W/m2
19:53 35.1 °F /  1.7 °C 28.6 °F /  -1.9 °C 29.93in /  1013.4hPa NE 6.0mph /  9.7km/h 6.0mph /  9.7km/h 77% 0.00in /  0mm 0.0 W/m2
19:58 34.6 °F /  1.4 °C 28.1 °F /  -2.2 °C 29.93in /  1013.4hPa NE 4.6mph /  7.4km/h 4.6mph /  7.4km/h 77% 0.00in /  0mm 0.0 W/m2
20:03 34.3 °F /  1.3 °C 27.8 °F /  -2.3 °C 29.93in /  1013.4hPa NE 3.5mph /  5.6km/h 3.5mph /  5.6km/h 77% 0.00in /  0mm 0.0 W/m2
20:08 33.9 °F /  1.1 °C 27.4 °F /  -2.6 °C 29.93in /  1013.4hPa NNE 8.1mph /  13km/h 8.1mph /  13km/h 77% 0.00in /  0mm 0.0 W/m2
20:13 33.5 °F /  0.8 °C 27.4 °F /  -2.6 °C 29.93in /  1013.4hPa NE 5.8mph /  9.3km/h 5.8mph /  9.3km/h 78% 0.00in /  0mm 0.0 W/m2
20:18 33.2 °F /  0.7 °C 27.4 °F /  -2.6 °C 29.94in /  1013.8hPa NE 3.5mph /  5.6km/h 3.5mph /  5.6km/h 79% 0.00in /  0mm 0.0 W/m2
20:23 32.9 °F /  0.5 °C 27.1 °F /  -2.7 °C 29.94in /  1013.8hPa NE 3.5mph /  5.6km/h 3.5mph /  5.6km/h 79% 0.00in /  0mm 0.0 W/m2
20:28 32.6 °F /  0.3 °C 27.1 °F /  -2.7 °C 29.95in /  1014.1hPa NE 3.5mph /  5.6km/h 3.5mph /  5.6km/h 80% 0.00in /  0mm 0.0 W/m2
20:33 32.3 °F /  0.2 °C 26.8 °F /  -2.9 °C 29.95in /  1014.1hPa NE 3.5mph /  5.6km/h 3.5mph /  5.6km/h 80% 0.00in /  0mm 0.0 W/m2
20:38 32.1 °F /  0.1 °C 26.6 °F /  -3 °C 29.95in /  1014.1hPa ENE 3.5mph /  5.6km/h 3.5mph /  5.6km/h 80% 0.00in /  0mm 0.0 W/m2
20:43 31.9 °F /  -0.1 °C 26.7 °F /  -2.9 °C 29.96in /  1014.4hPa NNE 2.3mph /  3.7km/h 2.3mph /  3.7km/h 81% 0.00in /  0mm 0.0 W/m2
20:48 31.6 °F /  -0.2 °C 26.4 °F /  -3.1 °C 29.96in /  1014.4hPa Calm     81% 0.00in /  0mm 0.0 W/m2
20:53 31.3 °F /  -0.4 °C 26.1 °F /  -3.3 °C 29.96in /  1014.4hPa Calm     81% 0.00in /  0mm 0.0 W/m2
20:58 31.1 °F /  -0.5 °C 26.2 °F /  -3.2 °C 29.96in /  1014.4hPa NNE 2.3mph /  3.7km/h 2.3mph /  3.7km/h 82% 0.00in /  0mm 0.0 W/m2
21:03 31.1 °F /  -0.5 °C 26.5 °F /  -3.1 °C 29.96in /  1014.4hPa Calm     83% 0.00in /  0mm 0.0 W/m2
21:08 31.1 °F /  -0.5 °C 26.5 °F /  -3.1 °C 29.96in /  1014.4hPa NE 2.3mph /  3.7km/h 2.3mph /  3.7km/h 83% 0.00in /  0mm 0.0 W/m2
21:13 31.0 °F /  -0.6 °C 26.4 °F /  -3.1 °C 29.96in /  1014.4hPa NE 2.3mph /  3.7km/h 2.3mph /  3.7km/h 83% 0.00in /  0mm 0.0 W/m2
21:18 31.0 °F /  -0.6 °C 26.4 °F /  -3.1 °C 29.97in /  1014.8hPa NE 3.5mph /  5.6km/h 3.5mph /  5.6km/h 83% 0.00in /  0mm 0.0 W/m2
21:23 30.8 °F /  -0.7 °C 26.5 °F /  -3.1 °C 29.96in /  1014.4hPa North 5.0mph /  8km/h 5.0mph /  8km/h 84% 0.00in /  0mm 0.0 W/m2
21:28 30.7 °F /  -0.7 °C 26.4 °F /  -3.1 °C 29.96in /  1014.4hPa NNE 4.6mph /  7.4km/h 4.6mph /  7.4km/h 84% 0.00in /  0mm 0.0 W/m2
21:33 30.7 °F /  -0.7 °C 26.4 °F /  -3.1 °C 29.95in /  1014.1hPa NE 4.6mph /  7.4km/h 4.6mph /  7.4km/h 84% 0.00in /  0mm 0.0 W/m2
21:38 30.6 °F /  -0.8 °C 26.6 °F /  -3 °C 29.95in /  1014.1hPa NE 3.5mph /  5.6km/h 3.5mph /  5.6km/h 85% 0.00in /  0mm 0.0 W/m2
21:43 30.6 °F /  -0.8 °C 26.6 °F /  -3 °C 29.95in /  1014.1hPa NE 3.5mph /  5.6km/h 3.5mph /  5.6km/h 85% 0.00in /  0mm 0.0 W/m2
21:48 30.6 °F /  -0.8 °C 26.6 °F /  -3 °C 29.95in /  1014.1hPa NE 3.5mph /  5.6km/h 3.5mph /  5.6km/h 85% 0.00in /  0mm 0.0 W/m2
21:53 30.5 °F /  -0.8 °C 26.5 °F /  -3.1 °C 29.95in /  1014.1hPa NE 3.5mph /  5.6km/h 3.5mph /  5.6km/h 85% 0.00in /  0mm 0.0 W/m2
21:58 30.5 °F /  -0.8 °C 26.5 °F /  -3.1 °C 29.95in /  1014.1hPa NE 3.5mph /  5.6km/h 3.5mph /  5.6km/h 85% 0.00in /  0mm 0.0 W/m2
22:03 30.4 °F /  -0.9 °C 26.4 °F /  -3.1 °C 29.95in /  1014.1hPa NE 3.5mph /  5.6km/h   85% 0.00in /  0mm 0.0 W/m2
22:08 30.3 °F /  -0.9 °C 26.3 °F /  -3.2 °C 29.95in /  1014.1hPa NE 3.5mph /  5.6km/h 3.5mph /  5.6km/h 85% 0.00in /  0mm 0.0 W/m2
22:13 30.3 °F /  -0.9 °C 26.3 °F /  -3.2 °C 29.96in /  1014.4hPa NE 3.5mph /  5.6km/h 3.5mph /  5.6km/h 85% 0.00in /  0mm 0.0 W/m2
22:18 30.2 °F /  -1 °C 26.2 °F /  -3.2 °C 29.96in /  1014.4hPa NE 1.2mph /  1.9km/h 1.2mph /  1.9km/h 85% 0.00in /  0mm 0.0 W/m2
22:23 30.1 °F /  -1.1 °C 26.1 °F /  -3.3 °C 29.96in /  1014.4hPa Calm     85% 0.00in /  0mm 0.0 W/m2
22:28 30.1 °F /  -1.1 °C 26.1 °F /  -3.3 °C 29.96in /  1014.4hPa Calm     85% 0.00in /  0mm 0.0 W/m2
22:33 30.0 °F /  -1.1 °C 26.0 °F /  -3.3 °C 29.97in /  1014.8hPa Calm     85% 0.00in /  0mm 0.0 W/m2
22:38 30.0 °F /  -1.1 °C 26.0 °F /  -3.3 °C 29.97in /  1014.8hPa Calm     85% 0.00in /  0mm 0.0 W/m2
22:43 29.9 °F /  -1.2 °C 25.9 °F /  -3.4 °C 29.97in /  1014.8hPa Calm     85% 0.00in /  0mm 0.0 W/m2
22:48 29.8 °F /  -1.2 °C 25.8 °F /  -3.4 °C 29.97in /  1014.8hPa Calm     85% 0.00in /  0mm 0.0 W/m2
22:53 29.7 °F /  -1.3 °C 25.7 °F /  -3.5 °C 29.97in /  1014.8hPa Calm     85% 0.00in /  0mm 0.0 W/m2
22:58 29.6 °F /  -1.3 °C 25.6 °F /  -3.6 °C 29.97in /  1014.8hPa Calm     85% 0.00in /  0mm 0.0 W/m2
23:03 29.4 °F /  -1.4 °C 25.4 °F /  -3.7 °C 29.96in /  1014.4hPa ENE 3.5mph /  5.6km/h 3.5mph /  5.6km/h 85% 0.00in /  0mm 0.0 W/m2
23:08 29.4 °F /  -1.4 °C 25.7 °F /  -3.5 °C 29.96in /  1014.4hPa NE 3.5mph /  5.6km/h 3.5mph /  5.6km/h 86% 0.00in /  0mm 0.0 W/m2
23:13 29.5 °F /  -1.4 °C 25.8 °F /  -3.4 °C 29.96in /  1014.4hPa Calm     86% 0.00in /  0mm 0.0 W/m2
23:18 29.6 °F /  -1.3 °C 25.9 °F /  -3.4 °C 29.96in /  1014.4hPa Calm     86% 0.00in /  0mm 0.0 W/m2
23:23 29.4 °F /  -1.4 °C 25.7 °F /  -3.5 °C 29.96in /  1014.4hPa Calm     86% 0.00in /  0mm 0.0 W/m2
23:28 29.3 °F /  -1.5 °C 25.6 °F /  -3.6 °C 29.96in /  1014.4hPa Calm     86% 0.00in /  0mm 0.0 W/m2
23:33 29.3 °F /  -1.5 °C 25.6 °F /  -3.6 °C 29.97in /  1014.8hPa Calm     86% 0.00in /  0mm 0.0 W/m2
23:38 29.1 °F /  -1.6 °C 25.4 °F /  -3.7 °C 29.97in /  1014.8hPa Calm     86% 0.00in /  0mm 0.0 W/m2
23:43 29.0 °F /  -1.7 °C 25.3 °F /  -3.7 °C 29.97in /  1014.8hPa Calm     86% 0.00in /  0mm 0.0 W/m2
23:48 28.9 °F /  -1.7 °C 25.2 °F /  -3.8 °C 29.97in /  1014.8hPa Calm     86% 0.00in /  0mm 0.0 W/m2
23:53 28.8 °F /  -1.8 °C 25.1 °F /  -3.8 °C 29.97in /  1014.8hPa Calm     86% 0.00in /  0mm 0.0 W/m2
23:58 28.7 °F /  -1.8 °C 25.0 °F /  -3.9 °C 29.96in /  1014.4hPa Calm     86% 0.00in /  0mm 0.0 W/m2
Bourbonnais, Illinois, USA
Compliments of Weather Underground - 2 mb